Time;durP1;ratioP1;P1;durP2;ratioP2;P2;SDS_P1;SDS_P2;PMS_P1;PMS_P2;Temp;Humidity;BMP_temperature;BMP_pressure;BME280_temperature;BME280_humidity;BME280_pressure;Samples;Min_cycle;Max_cycle;Signal;HPM_P1;HPM_P2
2022/12/31 00:00:18;;;;;;;1.55;1.50;;;;;;;;;;5030821;28;20561;-78
2022/12/31 00:02:44;;;;;;;0.60;0.60;;;;;;;;;;5029542;28;20029;-76
2022/12/31 00:05:10;;;;;;;0.45;0.45;;;;;;;;;;5030647;28;20029;-78
2022/12/31 00:07:35;;;;;;;0.57;0.57;;;;;;;;;;5030603;28;20033;-77
2022/12/31 00:10:01;;;;;;;0.82;0.82;;;;;;;;;;5030641;28;20428;-76
2022/12/31 00:12:27;;;;;;;3.40;3.13;;;;;;;;;;5030638;28;20083;-76
2022/12/31 00:14:52;;;;;;;0.35;0.35;;;;;;;;;;5029583;28;20111;-76
2022/12/31 00:17:17;;;;;;;1.05;1.05;;;;;;;;;;5014106;28;20570;-77
2022/12/31 00:19:43;;;;;;;0.20;0.20;;;;;;;;;;5047828;28;20025;-77
2022/12/31 00:22:08;;;;;;;1.20;1.10;;;;;;;;;;5034121;28;20100;-77
2022/12/31 00:24:34;;;;;;;0.47;0.47;;;;;;;;;;5023729;28;20037;-77
2022/12/31 00:27:00;;;;;;;1.80;1.38;;;;;;;;;;5034094;28;20033;-79
2022/12/31 00:29:25;;;;;;;2.33;2.15;;;;;;;;;;5033400;28;20017;-78
2022/12/31 00:31:51;;;;;;;2.95;2.78;;;;;;;;;;5013353;28;20037;-81
2022/12/31 00:34:16;;;;;;;0.73;0.73;;;;;;;;;;5013193;28;20076;-80
2022/12/31 00:36:42;;;;;;;0.68;0.68;;;;;;;;;;5013738;28;20128;-81
2022/12/31 00:39:09;;;;;;;0.60;0.60;;;;;;;;;;5014372;28;20397;-80
2022/12/31 00:41:35;;;;;;;3.08;2.78;;;;;;;;;;5014075;28;20373;-80
2022/12/31 00:44:01;;;;;;;0.20;0.20;;;;;;;;;;5014060;28;20025;-80
2022/12/31 00:46:26;;;;;;;0.55;0.55;;;;;;;;;;5014151;28;20491;-80
2022/12/31 00:48:52;;;;;;;2.08;1.63;;;;;;;;;;4985187;28;20023;-82
2022/12/31 00:51:18;;;;;;;0.20;0.20;;;;;;;;;;5033636;28;20028;-81
2022/12/31 00:53:44;;;;;;;3.20;2.70;;;;;;;;;;5031691;28;20057;-81
2022/12/31 00:56:11;;;;;;;0.95;0.95;;;;;;;;;;5030821;28;20025;-82
2022/12/31 00:58:36;;;;;;;2.33;2.22;;;;;;;;;;5032115;28;20025;-80
2022/12/31 01:01:08;;;;;;;0.22;0.22;;;;;;;;;;5032066;28;20457;-77
2022/12/31 01:03:33;;;;;;;0.20;0.20;;;;;;;;;;5033294;28;20029;-79
2022/12/31 01:06:00;;;;;;;6.32;5.68;;;;;;;;;;5040207;28;20044;-78
2022/12/31 01:08:25;;;;;;;0.50;0.50;;;;;;;;;;5034440;28;20111;-78
2022/12/31 01:13:35;;;;;;;0.20;0.20;;;;;;;;;;5039649;28;20029;-82
2022/12/31 01:16:07;;;;;;;0.20;0.20;;;;;;;;;;5031640;28;20596;-80
2022/12/31 01:18:32;;;;;;;0.90;0.90;;;;;;;;;;5032913;28;20017;-81
2022/12/31 01:21:00;;;;;;;1.60;1.50;;;;;;;;;;5033322;28;20407;-78
2022/12/31 01:23:26;;;;;;;0.82;0.82;;;;;;;;;;5036300;28;20025;-78
2022/12/31 01:25:52;;;;;;;1.38;1.30;;;;;;;;;;5031419;28;20059;-77
2022/12/31 01:28:17;;;;;;;0.20;0.20;;;;;;;;;;5033004;28;20361;-81
2022/12/31 01:30:43;;;;;;;1.17;1.08;;;;;;;;;;5033073;28;20022;-81
2022/12/31 01:33:08;;;;;;;0.60;0.60;;;;;;;;;;5032233;28;20461;-81
2022/12/31 01:35:34;;;;;;;3.55;3.28;;;;;;;;;;5031150;28;20156;-79
2022/12/31 01:37:59;;;;;;;3.13;2.75;;;;;;;;;;5033073;28;20120;-79
2022/12/31 01:40:25;;;;;;;0.25;0.25;;;;;;;;;;5031179;28;20116;-81
2022/12/31 01:42:57;;;;;;;0.20;0.20;;;;;;;;;;5035917;28;20025;-81
2022/12/31 01:45:23;;;;;;;19.42;8.95;;;;;;;;;;5032380;28;20033;-82
2022/12/31 01:47:53;;;;;;;2.67;2.15;;;;;;;;;;5033470;28;20032;-82
2022/12/31 01:50:25;;;;;;;0.65;0.65;;;;;;;;;;5017227;28;20038;-79
2022/12/31 01:52:52;;;;;;;24.30;2.92;;;;;;;;;;5039871;28;20025;-81
2022/12/31 01:55:18;;;;;;;0.43;0.43;;;;;;;;;;5049987;28;20021;-83
2022/12/31 01:57:45;;;;;;;0.20;0.20;;;;;;;;;;5036755;28;20373;-83
2022/12/31 02:00:11;;;;;;;0.20;0.20;;;;;;;;;;5036791;28;20029;-80
2022/12/31 02:02:36;;;;;;;1.35;1.27;;;;;;;;;;5036857;28;20034;-80
2022/12/31 02:05:04;;;;;;;0.20;0.20;;;;;;;;;;5036678;28;20022;-79
2022/12/31 02:07:29;;;;;;;2.90;2.60;;;;;;;;;;5036502;28;20075;-78
2022/12/31 02:09:55;;;;;;;1.88;0.73;;;;;;;;;;5036743;28;20056;-76
2022/12/31 02:12:20;;;;;;;0.40;0.40;;;;;;;;;;5018999;28;20029;-79
2022/12/31 02:14:48;;;;;;;0.45;0.45;;;;;;;;;;5036805;28;20021;-84
2022/12/31 02:17:13;;;;;;;0.38;0.38;;;;;;;;;;5036550;28;20422;-82
2022/12/31 02:19:38;;;;;;;1.50;1.45;;;;;;;;;;5036622;28;20104;-81
2022/12/31 02:22:21;;;;;;;4.95;4.50;;;;;;;;;;5036533;28;20025;-77
2022/12/31 02:24:55;;;;;;;9.25;6.35;;;;;;;;;;5034914;28;20044;-76
2022/12/31 02:27:56;;;;;;;5.85;5.30;;;;;;;;;;5036617;28;20029;-77
2022/12/31 02:30:23;;;;;;;0.30;0.30;;;;;;;;;;4975760;28;20458;-77
2022/12/31 02:32:55;;;;;;;1.30;1.27;;;;;;;;;;5023928;28;20034;-76
2022/12/31 02:35:32;;;;;;;0.68;0.68;;;;;;;;;;5034982;28;20053;-82
2022/12/31 02:38:01;;;;;;;4.82;4.47;;;;;;;;;;5035131;28;20037;-83
2022/12/31 02:40:27;;;;;;;3.47;3.22;;;;;;;;;;5022163;28;20063;-82
2022/12/31 02:42:52;;;;;;;0.35;0.35;;;;;;;;;;5045279;28;20021;-82
2022/12/31 02:45:21;;;;;;;3.20;2.55;;;;;;;;;;5035993;28;20038;-83
2022/12/31 02:47:59;;;;;;;0.20;0.20;;;;;;;;;;5035918;28;20033;-82
2022/12/31 02:50:27;;;;;;;0.10;0.10;;;;;;;;;;5036130;28;20018;-82
2022/12/31 02:53:12;;;;;;;0.13;0.13;;;;;;;;;;5035959;28;20057;-82
2022/12/31 02:55:51;;;;;;;1.38;1.27;;;;;;;;;;5018122;28;20021;-82
2022/12/31 03:02:12;;;;;;;0.28;0.28;;;;;;;;;;5035382;28;20025;-81
2022/12/31 03:06:41;;;;;;;4.32;4.13;;;;;;;;;;5036148;28;20461;-78
2022/12/31 03:09:13;;;;;;;1.00;1.00;;;;;;;;;;5035879;28;20021;-81
2022/12/31 03:14:22;;;;;;;0.20;0.20;;;;;;;;;;5035222;28;20480;-80
2022/12/31 03:16:48;;;;;;;0.30;0.30;;;;;;;;;;5035962;28;20026;-80
2022/12/31 03:27:25;;;;;;;1.20;1.20;;;;;;;;;;5034976;28;20052;-82
2022/12/31 03:29:51;;;;;;;0.10;0.10;;;;;;;;;;5035210;28;20025;-81
2022/12/31 03:32:16;;;;;;;0.45;0.45;;;;;;;;;;5035220;28;20028;-81
2022/12/31 03:34:42;;;;;;;0.20;0.20;;;;;;;;;;5035199;28;20557;-83
2022/12/31 03:37:07;;;;;;;0.32;0.32;;;;;;;;;;5035076;28;20091;-83
2022/12/31 03:39:32;;;;;;;2.90;2.72;;;;;;;;;;5035292;28;20017;-78
2022/12/31 03:41:58;;;;;;;1.10;1.00;;;;;;;;;;5034976;28;20026;-78
2022/12/31 03:44:23;;;;;;;0.68;0.68;;;;;;;;;;5017415;28;20358;-78
2022/12/31 03:46:49;;;;;;;1.00;1.00;;;;;;;;;;5034883;28;20487;-76
2022/12/31 03:49:14;;;;;;;1.95;1.85;;;;;;;;;;5034984;28;20018;-77
2022/12/31 03:51:39;;;;;;;0.17;0.17;;;;;;;;;;5034807;28;20365;-76
2022/12/31 03:54:05;;;;;;;0.10;0.10;;;;;;;;;;5034812;28;20009;-76
2022/12/31 03:56:30;;;;;;;0.43;0.43;;;;;;;;;;5032871;28;20033;-78
2022/12/31 03:58:56;;;;;;;5.50;5.20;;;;;;;;;;5032710;28;20026;-80
2022/12/31 04:01:23;;;;;;;0.52;0.52;;;;;;;;;;5032519;28;20029;-78
2022/12/31 04:03:49;;;;;;;0.10;0.10;;;;;;;;;;5027794;28;20006;-78
2022/12/31 04:06:14;;;;;;;0.57;0.57;;;;;;;;;;5028594;28;20112;-79
2022/12/31 04:08:40;;;;;;;0.30;0.30;;;;;;;;;;5029044;28;20441;-80
2022/12/31 04:11:05;;;;;;;0.60;0.60;;;;;;;;;;5010434;28;20036;-78
2022/12/31 04:13:31;;;;;;;0.13;0.13;;;;;;;;;;5030587;28;20030;-78
2022/12/31 04:15:56;;;;;;;0.20;0.20;;;;;;;;;;5030996;28;20055;-78
2022/12/31 04:18:21;;;;;;;0.60;0.60;;;;;;;;;;5013341;28;20298;-78
2022/12/31 04:20:47;;;;;;;0.20;0.20;;;;;;;;;;5030575;28;20056;-78
2022/12/31 04:23:12;;;;;;;0.20;0.20;;;;;;;;;;5012719;28;20415;-79
2022/12/31 04:25:38;;;;;;;0.20;0.20;;;;;;;;;;5013001;28;20536;-76
2022/12/31 04:28:03;;;;;;;0.10;0.10;;;;;;;;;;5030383;28;20044;-86
2022/12/31 04:30:29;;;;;;;0.65;0.65;;;;;;;;;;5030674;28;20029;-84
2022/12/31 04:32:54;;;;;;;0.22;0.22;;;;;;;;;;5030788;28;20021;-85
2022/12/31 04:35:19;;;;;;;0.25;0.25;;;;;;;;;;5030461;28;20116;-83
2022/12/31 04:37:45;;;;;;;5.15;3.70;;;;;;;;;;5029293;28;20416;-83
2022/12/31 04:40:11;;;;;;;0.30;0.30;;;;;;;;;;5030384;28;20036;-77
2022/12/31 04:42:36;;;;;;;0.30;0.30;;;;;;;;;;5012474;28;20033;-77
2022/12/31 04:45:02;;;;;;;3.60;3.35;;;;;;;;;;5030026;28;20041;-77
2022/12/31 04:47:28;;;;;;;0.17;0.17;;;;;;;;;;5031893;28;20456;-79
2022/12/31 04:49:53;;;;;;;0.10;0.10;;;;;;;;;;5050358;28;20078;-79
2022/12/31 04:52:19;;;;;;;0.60;0.60;;;;;;;;;;5050201;28;20563;-79
2022/12/31 04:54:44;;;;;;;0.20;0.20;;;;;;;;;;5049965;28;20365;-78
2022/12/31 04:57:10;;;;;;;1.35;1.25;;;;;;;;;;5049825;28;20155;-78
2022/12/31 04:59:35;;;;;;;0.20;0.20;;;;;;;;;;5050071;28;20089;-79
2022/12/31 05:02:00;;;;;;;8.68;3.13;;;;;;;;;;5049446;28;20029;-78
2022/12/31 05:04:26;;;;;;;0.25;0.25;;;;;;;;;;5049630;28;20033;-78
2022/12/31 05:06:51;;;;;;;3.40;2.38;;;;;;;;;;5049758;28;20146;-77
2022/12/31 05:09:17;;;;;;;0.10;0.10;;;;;;;;;;5049871;28;20464;-77
2022/12/31 05:11:42;;;;;;;0.32;0.32;;;;;;;;;;5049562;28;20353;-77
2022/12/31 05:14:07;;;;;;;0.57;0.57;;;;;;;;;;5049849;28;20017;-77
2022/12/31 05:16:33;;;;;;;0.20;0.20;;;;;;;;;;5049934;28;20032;-77
2022/12/31 05:18:58;;;;;;;0.20;0.20;;;;;;;;;;5049602;28;20112;-78
2022/12/31 05:21:24;;;;;;;2.92;2.67;;;;;;;;;;5014972;28;20032;-79
2022/12/31 05:23:49;;;;;;;2.00;1.90;;;;;;;;;;5049399;28;20025;-77
2022/12/31 05:26:15;;;;;;;0.10;0.10;;;;;;;;;;5049428;28;20076;-79
2022/12/31 05:28:41;;;;;;;0.20;0.20;;;;;;;;;;5049460;28;20040;-80
2022/12/31 05:31:06;;;;;;;0.10;0.10;;;;;;;;;;5040728;28;20029;-79
2022/12/31 05:33:31;;;;;;;0.45;0.45;;;;;;;;;;5029178;28;20026;-77
2022/12/31 05:35:57;;;;;;;1.50;1.40;;;;;;;;;;5012012;28;20024;-77
2022/12/31 05:38:23;;;;;;;28.58;3.70;;;;;;;;;;5029292;28;20124;-76
2022/12/31 05:40:48;;;;;;;0.50;0.50;;;;;;;;;;5029511;28;20021;-77
2022/12/31 05:43:14;;;;;;;1.45;1.45;;;;;;;;;;5029073;28;20346;-77
2022/12/31 05:45:39;;;;;;;2.33;2.22;;;;;;;;;;5011440;28;20124;-77
2022/12/31 05:48:05;;;;;;;0.20;0.20;;;;;;;;;;5029425;28;20021;-77
2022/12/31 05:50:30;;;;;;;0.25;0.25;;;;;;;;;;5029488;28;20032;-77
2022/12/31 05:53:02;;;;;;;0.10;0.10;;;;;;;;;;5029654;28;20017;-77
2022/12/31 05:55:28;;;;;;;0.13;0.13;;;;;;;;;;5029467;28;20037;-77
2022/12/31 05:57:53;;;;;;;0.20;0.20;;;;;;;;;;5011677;28;20013;-78
2022/12/31 06:00:18;;;;;;;0.50;0.50;;;;;;;;;;5011142;28;20068;-78
2022/12/31 06:02:44;;;;;;;0.10;0.10;;;;;;;;;;5018090;28;20030;-78
2022/12/31 06:05:09;;;;;;;0.10;0.10;;;;;;;;;;4991973;28;20036;-77
2022/12/31 06:07:35;;;;;;;0.55;0.55;;;;;;;;;;5009292;28;20041;-76
2022/12/31 06:10:03;;;;;;;0.20;0.20;;;;;;;;;;5009621;28;20448;-77
2022/12/31 06:12:28;;;;;;;4.88;4.57;;;;;;;;;;5028275;28;20109;-80
2022/12/31 06:14:54;;;;;;;0.20;0.20;;;;;;;;;;4994843;28;20112;-80
2022/12/31 06:17:21;;;;;;;0.85;0.85;;;;;;;;;;5028257;28;20049;-78
2022/12/31 06:19:47;;;;;;;0.13;0.13;;;;;;;;;;5029203;28;20085;-79
2022/12/31 06:22:12;;;;;;;0.20;0.20;;;;;;;;;;5028351;28;20500;-81
2022/12/31 06:24:38;;;;;;;0.40;0.40;;;;;;;;;;5026357;28;20037;-79
2022/12/31 06:27:03;;;;;;;0.20;0.20;;;;;;;;;;5008542;28;20021;-79
2022/12/31 06:29:28;;;;;;;1.67;1.58;;;;;;;;;;5027855;28;20032;-78
2022/12/31 06:31:54;;;;;;;0.30;0.30;;;;;;;;;;5026374;28;20029;-79
2022/12/31 06:34:19;;;;;;;0.20;0.20;;;;;;;;;;5030160;28;20063;-79
2022/12/31 06:36:45;;;;;;;6.70;3.50;;;;;;;;;;5032479;28;20033;-76
2022/12/31 06:39:10;;;;;;;0.13;0.13;;;;;;;;;;5032615;28;20060;-76
2022/12/31 06:41:35;;;;;;;0.60;0.60;;;;;;;;;;5031598;28;20033;-78
2022/12/31 06:44:01;;;;;;;0.20;0.20;;;;;;;;;;5031834;28;20025;-79
2022/12/31 06:46:26;;;;;;;1.02;1.02;;;;;;;;;;5031684;28;20461;-78
2022/12/31 06:48:52;;;;;;;0.35;0.35;;;;;;;;;;5031257;28;20460;-77
2022/12/31 06:51:18;;;;;;;1.75;1.40;;;;;;;;;;5031689;28;20512;-78
2022/12/31 06:53:44;;;;;;;1.17;1.17;;;;;;;;;;5035407;28;20025;-78
2022/12/31 06:56:15;;;;;;;0.10;0.10;;;;;;;;;;5047392;28;20028;-78
2022/12/31 06:58:41;;;;;;;1.17;1.17;;;;;;;;;;5008956;28;20033;-82
2022/12/31 07:01:24;;;;;;;9.98;9.07;;;;;;;;;;5029512;28;20018;-79
2022/12/31 07:03:50;;;;;;;0.20;0.20;;;;;;;;;;5018068;28;20026;-79
2022/12/31 07:06:18;;;;;;;1.23;1.23;;;;;;;;;;5010357;28;20375;-79
2022/12/31 07:08:49;;;;;;;0.28;0.28;;;;;;;;;;5009927;28;20026;-78
2022/12/31 07:11:22;;;;;;;0.28;0.28;;;;;;;;;;5009903;28;20025;-78
2022/12/31 07:14:06;;;;;;;1.85;1.75;;;;;;;;;;5028702;28;20124;-81
2022/12/31 07:16:43;;;;;;;0.10;0.10;;;;;;;;;;5032507;28;20108;-76
2022/12/31 07:19:15;;;;;;;1.17;1.17;;;;;;;;;;5031014;28;20469;-75
2022/12/31 07:21:40;;;;;;;1.35;1.25;;;;;;;;;;5030375;28;20030;-77
2022/12/31 07:24:07;;;;;;;0.10;0.10;;;;;;;;;;5028951;28;20037;-77
2022/12/31 07:26:35;;;;;;;2.25;2.10;;;;;;;;;;5049041;28;20116;-77
2022/12/31 07:29:12;;;;;;;0.20;0.20;;;;;;;;;;5051135;28;20024;-77
2022/12/31 07:31:47;;;;;;;0.82;0.82;;;;;;;;;;5028335;28;20116;-77
2022/12/31 07:34:21;;;;;;;2.92;2.17;;;;;;;;;;5028947;28;20530;-77
2022/12/31 07:36:53;;;;;;;0.10;0.10;;;;;;;;;;5029301;28;20540;-77
2022/12/31 07:39:27;;;;;;;0.20;0.20;;;;;;;;;;5029335;28;20029;-77
2022/12/31 07:42:03;;;;;;;0.17;0.17;;;;;;;;;;5029325;28;20024;-80
2022/12/31 07:44:36;;;;;;;0.10;0.10;;;;;;;;;;5010530;28;20120;-78
2022/12/31 07:47:04;;;;;;;2.38;2.22;;;;;;;;;;5012710;28;20041;-78
2022/12/31 07:49:30;;;;;;;1.85;1.75;;;;;;;;;;5029990;28;20033;-78
2022/12/31 07:51:56;;;;;;;0.20;0.20;;;;;;;;;;5029714;28;20083;-77
2022/12/31 07:54:21;;;;;;;0.40;0.40;;;;;;;;;;5030116;28;20021;-77
2022/12/31 07:56:48;;;;;;;0.10;0.10;;;;;;;;;;5028761;28;20025;-76
2022/12/31 07:59:32;;;;;;;0.15;0.15;;;;;;;;;;5029299;28;20063;-75
2022/12/31 08:02:00;;;;;;;0.20;0.20;;;;;;;;;;5029578;28;20022;-76
2022/12/31 08:04:45;;;;;;;0.30;0.30;;;;;;;;;;5030782;28;20034;-77
2022/12/31 08:07:18;;;;;;;0.65;0.65;;;;;;;;;;5030799;28;20028;-78
2022/12/31 08:09:50;;;;;;;0.10;0.10;;;;;;;;;;5029516;28;20025;-78
2022/12/31 08:12:17;;;;;;;0.77;0.77;;;;;;;;;;5026286;28;20029;-78
2022/12/31 08:14:43;;;;;;;5.57;2.47;;;;;;;;;;5028801;28;20036;-76
2022/12/31 08:17:11;;;;;;;0.40;0.40;;;;;;;;;;5019541;28;20056;-77
2022/12/31 08:19:36;;;;;;;0.10;0.10;;;;;;;;;;5000313;28;20038;-77
2022/12/31 08:22:20;;;;;;;0.47;0.47;;;;;;;;;;5023320;28;20360;-76
2022/12/31 08:24:46;;;;;;;0.10;0.10;;;;;;;;;;5029173;28;20041;-77
2022/12/31 08:27:26;;;;;;;0.10;0.10;;;;;;;;;;5030692;28;20024;-76
2022/12/31 08:29:55;;;;;;;0.10;0.10;;;;;;;;;;5030792;28;20112;-76
2022/12/31 08:32:39;;;;;;;0.10;0.10;;;;;;;;;;5029507;28;20346;-76
2022/12/31 08:35:13;;;;;;;0.22;0.22;;;;;;;;;;5026797;28;20039;-75
2022/12/31 08:37:41;;;;;;;0.10;0.10;;;;;;;;;;5043766;28;20138;-77
2022/12/31 08:40:19;;;;;;;0.45;0.45;;;;;;;;;;5049063;28;20033;-78
2022/12/31 08:42:48;;;;;;;1.65;1.55;;;;;;;;;;5031408;28;20074;-76
2022/12/31 08:45:25;;;;;;;0.10;0.10;;;;;;;;;;5048706;28;20071;-80
2022/12/31 08:48:09;;;;;;;0.88;0.88;;;;;;;;;;5043688;28;20017;-78
2022/12/31 08:50:35;;;;;;;0.38;0.38;;;;;;;;;;5026884;28;20067;-77
2022/12/31 08:53:00;;;;;;;0.28;0.28;;;;;;;;;;5024843;28;20384;-77
2022/12/31 08:55:26;;;;;;;0.15;0.15;;;;;;;;;;5036214;28;20033;-78
2022/12/31 08:57:57;;;;;;;12.68;4.00;;;;;;;;;;5034612;28;20021;-77
2022/12/31 09:00:23;;;;;;;0.77;0.77;;;;;;;;;;5025759;28;20022;-77
2022/12/31 09:02:48;;;;;;;0.20;0.20;;;;;;;;;;5026499;28;20068;-78
2022/12/31 09:05:24;;;;;;;0.20;0.20;;;;;;;;;;5026504;28;20034;-79
2022/12/31 09:08:08;;;;;;;0.40;0.40;;;;;;;;;;5026245;28;20086;-78
2022/12/31 09:10:43;;;;;;;1.67;1.58;;;;;;;;;;5027290;28;20013;-78
2022/12/31 09:13:13;;;;;;;0.93;0.93;;;;;;;;;;5011605;28;20025;-82
2022/12/31 09:15:41;;;;;;;1.52;1.45;;;;;;;;;;5029828;28;20025;-82
2022/12/31 09:18:08;;;;;;;0.73;0.73;;;;;;;;;;5030404;28;20014;-83
2022/12/31 09:20:33;;;;;;;0.52;0.52;;;;;;;;;;5038697;28;20079;-84
2022/12/31 09:22:59;;;;;;;1.63;1.52;;;;;;;;;;5038419;28;20033;-83
2022/12/31 09:25:25;;;;;;;0.30;0.30;;;;;;;;;;5008316;28;20473;-83
2022/12/31 09:27:57;;;;;;;0.30;0.30;;;;;;;;;;5026803;28;20036;-86
2022/12/31 09:30:22;;;;;;;1.48;1.20;;;;;;;;;;5033523;28;20101;-84
2022/12/31 09:32:57;;;;;;;0.35;0.35;;;;;;;;;;5026147;28;20140;-83
2022/12/31 09:35:34;;;;;;;0.10;0.10;;;;;;;;;;5024247;28;20032;-84
2022/12/31 09:38:18;;;;;;;1.15;1.05;;;;;;;;;;5027246;28;20049;-85
2022/12/31 09:41:02;;;;;;;0.20;0.20;;;;;;;;;;5026372;28;20491;-85
2022/12/31 09:43:27;;;;;;;0.20;0.20;;;;;;;;;;5008911;28;20760;-84
2022/12/31 09:45:53;;;;;;;0.52;0.52;;;;;;;;;;5026103;28;20040;-77
2022/12/31 09:48:27;;;;;;;0.30;0.30;;;;;;;;;;5027428;28;20013;-85
2022/12/31 09:50:57;;;;;;;0.30;0.30;;;;;;;;;;5027545;28;20017;-84
2022/12/31 09:53:30;;;;;;;1.38;1.38;;;;;;;;;;5020743;28;20041;-86
2022/12/31 09:55:56;;;;;;;0.80;0.73;;;;;;;;;;5009304;28;20090;-85
2022/12/31 09:58:36;;;;;;;0.20;0.20;;;;;;;;;;5027607;28;20029;-86
2022/12/31 10:01:21;;;;;;;0.20;0.20;;;;;;;;;;5028006;28;20062;-86
2022/12/31 10:03:57;;;;;;;0.45;0.45;;;;;;;;;;5037857;28;20017;-85
2022/12/31 10:06:29;;;;;;;0.47;0.47;;;;;;;;;;5030881;28;20039;-85
2022/12/31 10:08:55;;;;;;;0.30;0.30;;;;;;;;;;5048258;28;20029;-86
2022/12/31 10:11:27;;;;;;;0.30;0.30;;;;;;;;;;5048017;28;20091;-86
2022/12/31 10:14:11;;;;;;;0.30;0.30;;;;;;;;;;5000876;28;20030;-85
2022/12/31 10:16:45;;;;;;;0.20;0.20;;;;;;;;;;5030804;28;20044;-86
2022/12/31 10:19:17;;;;;;;0.40;0.40;;;;;;;;;;5031620;28;20112;-86
2022/12/31 10:21:55;;;;;;;0.43;0.43;;;;;;;;;;5021944;28;20234;-86
2022/12/31 10:24:39;;;;;;;0.77;0.77;;;;;;;;;;5030270;28;20025;-86
2022/12/31 10:27:17;;;;;;;0.55;0.55;;;;;;;;;;5030719;28;20967;-88
2022/12/31 10:30:00;;;;;;;0.30;0.30;;;;;;;;;;5007163;28;20479;-87
2022/12/31 10:32:43;;;;;;;5.68;5.45;;;;;;;;;;5030604;28;20087;-89
2022/12/31 10:35:24;;;;;;;0.25;0.25;;;;;;;;;;5032014;28;20025;-91
2022/12/31 10:37:52;;;;;;;0.20;0.20;;;;;;;;;;5017847;28;20043;-92
2022/12/31 10:40:21;;;;;;;0.20;0.20;;;;;;;;;;5032242;28;20075;-91
2022/12/31 10:43:05;;;;;;;10.02;9.45;;;;;;;;;;5011257;28;20492;-87
2022/12/31 10:45:46;;;;;;;0.20;0.20;;;;;;;;;;5009809;28;20029;-87
2022/12/31 10:48:11;;;;;;;0.20;0.20;;;;;;;;;;5019180;28;20116;-88
2022/12/31 10:51:09;;;;;;;0.20;0.20;;;;;;;;;;5037690;28;20081;-86
2022/12/31 10:53:35;;;;;;;0.20;0.20;;;;;;;;;;5005777;28;20029;-87
2022/12/31 10:56:19;;;;;;;0.20;0.20;;;;;;;;;;5049487;28;20040;-85
2022/12/31 10:59:14;;;;;;;0.10;0.10;;;;;;;;;;5027009;28;20112;-85
2022/12/31 11:01:47;;;;;;;0.20;0.20;;;;;;;;;;4999743;28;20120;-85
2022/12/31 11:04:19;;;;;;;0.20;0.20;;;;;;;;;;5008938;28;20468;-84
2022/12/31 11:06:57;;;;;;;0.20;0.20;;;;;;;;;;5014994;28;20071;-85
2022/12/31 11:09:22;;;;;;;0.30;0.30;;;;;;;;;;4992546;28;20034;-85
2022/12/31 11:11:57;;;;;;;0.28;0.28;;;;;;;;;;5011055;28;20025;-86
2022/12/31 11:14:25;;;;;;;0.28;0.28;;;;;;;;;;5028216;28;20103;-86
2022/12/31 11:17:10;;;;;;;0.30;0.30;;;;;;;;;;5031907;28;20041;-84
2022/12/31 11:19:47;;;;;;;0.20;0.20;;;;;;;;;;5030475;28;20072;-84
2022/12/31 11:22:16;;;;;;;0.20;0.20;;;;;;;;;;5032235;28;20051;-83
2022/12/31 11:24:57;;;;;;;0.30;0.30;;;;;;;;;;5014457;28;20461;-86
2022/12/31 11:27:22;;;;;;;0.25;0.25;;;;;;;;;;5031386;28;20029;-83
2022/12/31 11:30:09;;;;;;;0.50;0.50;;;;;;;;;;5005381;28;20094;-86
2022/12/31 11:32:37;;;;;;;0.82;0.63;;;;;;;;;;5031372;28;20473;-87
2022/12/31 11:35:14;;;;;;;3.72;1.95;;;;;;;;;;5033248;28;20033;-86
2022/12/31 11:37:43;;;;;;;0.30;0.30;;;;;;;;;;5013401;28;20037;-83
2022/12/31 11:40:18;;;;;;;0.70;0.68;;;;;;;;;;5028678;28;20064;-85
2022/12/31 11:42:58;;;;;;;0.43;0.43;;;;;;;;;;5011769;28;20025;-84
2022/12/31 11:45:42;;;;;;;0.60;0.60;;;;;;;;;;5028559;28;20472;-82
2022/12/31 11:48:11;;;;;;;0.20;0.20;;;;;;;;;;5011886;28;20111;-83
2022/12/31 11:50:41;;;;;;;0.20;0.20;;;;;;;;;;5028637;28;20021;-82
2022/12/31 11:53:24;;;;;;;0.28;0.28;;;;;;;;;;5028332;28;20358;-84
2022/12/31 11:56:19;;;;;;;0.20;0.20;;;;;;;;;;5007929;28;20444;-85
2022/12/31 11:58:49;;;;;;;0.20;0.20;;;;;;;;;;5026421;28;20037;-84
2022/12/31 12:01:21;;;;;;;0.20;0.20;;;;;;;;;;5039750;28;20024;-83
2022/12/31 12:03:47;;;;;;;0.20;0.20;;;;;;;;;;5034418;28;20025;-83
2022/12/31 12:06:13;;;;;;;0.30;0.30;;;;;;;;;;5027020;28;20096;-84
2022/12/31 12:08:39;;;;;;;0.68;0.68;;;;;;;;;;5037070;28;20037;-84
2022/12/31 12:11:17;;;;;;;0.65;0.65;;;;;;;;;;5027865;28;20032;-84
2022/12/31 12:13:44;;;;;;;0.20;0.20;;;;;;;;;;5029967;28;20049;-82
2022/12/31 12:16:09;;;;;;;0.20;0.20;;;;;;;;;;5028595;28;20033;-83
2022/12/31 12:18:39;;;;;;;0.40;0.35;;;;;;;;;;5027907;28;20053;-82
2022/12/31 12:21:07;;;;;;;0.20;0.20;;;;;;;;;;5020093;28;20025;-81
2022/12/31 12:23:33;;;;;;;0.20;0.20;;;;;;;;;;5012225;28;20109;-81
2022/12/31 12:25:58;;;;;;;2.15;2.05;;;;;;;;;;5029792;28;20544;-81
2022/12/31 12:28:27;;;;;;;0.20;0.20;;;;;;;;;;5005097;28;20052;-82
2022/12/31 12:31:00;;;;;;;0.30;0.30;;;;;;;;;;5025770;28;20087;-82
2022/12/31 12:33:28;;;;;;;0.82;0.82;;;;;;;;;;5005102;28;20026;-82
2022/12/31 12:36:05;;;;;;;0.20;0.20;;;;;;;;;;5009887;28;20041;-82
2022/12/31 12:38:30;;;;;;;0.30;0.30;;;;;;;;;;5027698;28;20392;-84
2022/12/31 12:40:57;;;;;;;0.20;0.20;;;;;;;;;;5028151;28;20021;-83
2022/12/31 12:43:27;;;;;;;1.20;1.10;;;;;;;;;;5026712;28;20138;-83
2022/12/31 12:45:55;;;;;;;0.20;0.20;;;;;;;;;;5025758;28;20476;-83
2022/12/31 12:48:40;;;;;;;0.20;0.20;;;;;;;;;;5037008;28;20071;-83
2022/12/31 12:51:17;;;;;;;0.30;0.30;;;;;;;;;;5020827;28;20476;-83
2022/12/31 12:53:49;;;;;;;0.50;0.50;;;;;;;;;;5047873;28;20029;-83
2022/12/31 12:56:14;;;;;;;0.20;0.20;;;;;;;;;;5024841;28;20030;-84
2022/12/31 12:58:40;;;;;;;0.38;0.38;;;;;;;;;;5036307;28;20055;-84
2022/12/31 13:01:23;;;;;;;1.58;1.15;;;;;;;;;;5035201;28;20021;-84
2022/12/31 13:03:51;;;;;;;0.95;0.95;;;;;;;;;;5022887;28;20026;-82
2022/12/31 13:06:20;;;;;;;0.20;0.20;;;;;;;;;;5029066;28;20128;-82
2022/12/31 13:08:51;;;;;;;1.83;1.65;;;;;;;;;;5025741;28;20965;-83
2022/12/31 13:11:25;;;;;;;0.50;0.50;;;;;;;;;;5006329;28;20025;-83
2022/12/31 13:14:06;;;;;;;2.15;1.20;;;;;;;;;;5028789;28;20343;-83
2022/12/31 13:16:35;;;;;;;3.05;1.20;;;;;;;;;;5029882;28;20030;-84
2022/12/31 13:19:07;;;;;;;8.65;0.70;;;;;;;;;;5012581;28;20480;-83
2022/12/31 13:21:38;;;;;;;6.38;6.07;;;;;;;;;;5028373;28;20408;-83
2022/12/31 13:24:19;;;;;;;2.92;1.05;;;;;;;;;;5030395;28;20023;-82
2022/12/31 13:26:59;;;;;;;4.93;3.22;;;;;;;;;;5027308;28;20369;-83
2022/12/31 13:29:27;;;;;;;0.50;0.38;;;;;;;;;;5027936;28;20039;-83
2022/12/31 13:31:54;;;;;;;3.90;2.28;;;;;;;;;;5011403;28;20029;-83
2022/12/31 13:34:24;;;;;;;11.02;1.67;;;;;;;;;;5028510;28;20412;-83
2022/12/31 13:36:51;;;;;;;4.72;3.80;;;;;;;;;;5010404;28;20022;-84
2022/12/31 13:39:25;;;;;;;68.85;24.75;;;;;;;;;;5011458;28;20465;-83
2022/12/31 13:41:56;;;;;;;0.60;0.52;;;;;;;;;;5028303;28;20029;-82
2022/12/31 13:44:37;;;;;;;0.45;0.45;;;;;;;;;;5034996;28;20033;-83
2022/12/31 13:47:05;;;;;;;1.10;0.75;;;;;;;;;;5036535;28;20415;-83
2022/12/31 13:49:43;;;;;;;2.15;1.52;;;;;;;;;;5031319;28;20023;-82
2022/12/31 13:52:28;;;;;;;2.58;1.55;;;;;;;;;;5025810;28;20063;-82
2022/12/31 13:55:02;;;;;;;0.35;0.35;;;;;;;;;;5038616;28;20024;-83
2022/12/31 13:57:48;;;;;;;0.80;0.80;;;;;;;;;;5031230;28;20053;-82
2022/12/31 14:00:19;;;;;;;0.40;0.40;;;;;;;;;;5033137;28;20040;-82
2022/12/31 14:02:57;;;;;;;18.33;2.70;;;;;;;;;;5032003;28;20028;-82
2022/12/31 14:05:30;;;;;;;1.80;1.42;;;;;;;;;;5028780;28;20029;-81
2022/12/31 14:07:58;;;;;;;1.65;1.33;;;;;;;;;;5030971;28;20022;-81
2022/12/31 14:10:30;;;;;;;0.40;0.35;;;;;;;;;;5013153;28;20020;-81
2022/12/31 14:13:05;;;;;;;0.40;0.40;;;;;;;;;;5030883;28;20153;-81
2022/12/31 14:15:36;;;;;;;8.13;5.55;;;;;;;;;;5037926;28;20040;-82
2022/12/31 14:18:01;;;;;;;0.40;0.40;;;;;;;;;;5047588;28;20074;-81
2022/12/31 14:20:27;;;;;;;0.30;0.30;;;;;;;;;;5049033;28;20021;-81
2022/12/31 14:22:58;;;;;;;0.82;0.75;;;;;;;;;;5050881;28;20464;-81
2022/12/31 14:25:46;;;;;;;0.20;0.20;;;;;;;;;;5041540;28;20037;-81
2022/12/31 14:28:17;;;;;;;0.20;0.20;;;;;;;;;;4996398;28;20026;-83
2022/12/31 14:30:43;;;;;;;0.60;0.60;;;;;;;;;;5047906;28;20032;-84
2022/12/31 14:33:27;;;;;;;0.30;0.30;;;;;;;;;;5032159;28;20067;-82
2022/12/31 14:36:02;;;;;;;1.40;1.30;;;;;;;;;;5050133;28;20514;-81
2022/12/31 14:38:48;;;;;;;0.45;0.45;;;;;;;;;;5033925;28;20472;-83
2022/12/31 14:41:32;;;;;;;1.38;1.08;;;;;;;;;;5052637;28;20029;-82
2022/12/31 14:43:58;;;;;;;0.30;0.30;;;;;;;;;;5034234;28;20026;-81
2022/12/31 14:46:28;;;;;;;0.45;0.45;;;;;;;;;;5039835;28;20136;-82
2022/12/31 14:48:55;;;;;;;0.85;0.85;;;;;;;;;;4998381;28;20437;-81
2022/12/31 14:51:20;;;;;;;0.90;0.90;;;;;;;;;;5011143;28;20014;-83
2022/12/31 14:53:52;;;;;;;1.05;1.02;;;;;;;;;;5029899;28;20052;-83
2022/12/31 14:56:37;;;;;;;0.20;0.20;;;;;;;;;;5028387;28;20037;-82
2022/12/31 14:59:20;;;;;;;0.20;0.20;;;;;;;;;;5012672;28;20033;-82
2022/12/31 15:01:46;;;;;;;0.20;0.20;;;;;;;;;;5012508;28;20175;-82
2022/12/31 15:04:13;;;;;;;0.20;0.20;;;;;;;;;;4996042;28;20034;-81
2022/12/31 15:06:46;;;;;;;0.20;0.20;;;;;;;;;;5029861;28;20045;-83
2022/12/31 15:09:11;;;;;;;0.25;0.25;;;;;;;;;;5012371;28;20035;-81
2022/12/31 15:11:45;;;;;;;0.47;0.47;;;;;;;;;;5029786;28;20084;-81
2022/12/31 15:14:29;;;;;;;0.32;0.32;;;;;;;;;;5007398;28;20021;-81
2022/12/31 15:17:01;;;;;;;0.30;0.30;;;;;;;;;;5015448;28;20377;-82
2022/12/31 15:19:45;;;;;;;0.40;0.40;;;;;;;;;;5000708;28;20900;-83